Terminal Aerodrome Forecast
Issued by NWS

Current Version | Previous Version | Text Only | Print | Product List | Glossary On
Versions: 1 2 3 4 5 6 7 8 9 10 11 12 13 14 15 16 17 18 19 20 21 22 23 24 25
000
FTUS42 KMFL 220908 AAA
TAFMIA
TAF AMD
KMIA 220908Z 2209/2306 13010KT P6SM VCSH SCT025 SCT060 BKN250
     FM221400 15015G20KT P6SM VCSH SCT020 BKN035 BKN050
     FM221600 15015G20KT P6SM -SHRA VCTS SCT020CB OVC030
      TEMPO 2217/2220 2SM TSRA BKN015CB OVC025
     FM222300 16010KT 6SM -SHRA SCT010 BKN030 OVC050
     FM230300 22009KT P6SM -SHRA SCT030 BKN050 OVC100=

USA.gov is the U.S. government's official web portal to all federal, state and local government web resources and services.